Time;durP1;ratioP1;P1;durP2;ratioP2;P2;SDS_P1;SDS_P2;PMS_P1;PMS_P2;Temp;Humidity;BMP_temperature;BMP_pressure;BME280_temperature;BME280_humidity;BME280_pressure;Samples;Min_cycle;Max_cycle;Signal;HPM_P1;HPM_P2
2023/10/24 00:01:14;;;;;;;2.40;1.80;;;;;;;;;;6157538;28;20487;-78
2023/10/24 00:04:14;;;;;;;1.77;1.67;;;;;;;;;;6213285;28;20050;-77
2023/10/24 00:07:14;;;;;;;3.23;1.63;;;;;;;;;;6193011;28;20474;-78
2023/10/24 00:10:14;;;;;;;2.20;1.97;;;;;;;;;;6181329;28;20029;-78
2023/10/24 00:13:15;;;;;;;3.50;1.70;;;;;;;;;;6197307;28;20034;-78
2023/10/24 00:16:15;;;;;;;2.80;1.50;;;;;;;;;;6182763;28;20031;-77
2023/10/24 00:19:15;;;;;;;1.83;1.43;;;;;;;;;;6171735;28;20031;-78
2023/10/24 00:22:15;;;;;;;2.23;1.53;;;;;;;;;;6171706;28;20123;-77
2023/10/24 00:25:16;;;;;;;1.87;1.57;;;;;;;;;;6193200;28;20080;-78
2023/10/24 00:28:16;;;;;;;1.70;1.53;;;;;;;;;;6184442;28;20102;-78
2023/10/24 00:31:16;;;;;;;2.33;1.90;;;;;;;;;;6192679;28;20068;-77
2023/10/24 00:34:17;;;;;;;1.90;1.60;;;;;;;;;;6193590;28;20076;-78
2023/10/24 00:37:17;;;;;;;2.25;1.67;;;;;;;;;;6190919;28;20485;-78
2023/10/24 00:40:18;;;;;;;2.50;1.60;;;;;;;;;;6195450;28;20444;-78
2023/10/24 00:43:19;;;;;;;2.22;1.90;;;;;;;;;;6189201;28;20040;-78
2023/10/24 00:46:19;;;;;;;2.70;1.83;;;;;;;;;;6196606;28;20058;-78
2023/10/24 00:49:19;;;;;;;1.87;1.60;;;;;;;;;;6173047;28;20061;-78
2023/10/24 00:52:20;;;;;;;2.20;1.60;;;;;;;;;;6178894;28;20034;-78
2023/10/24 00:55:20;;;;;;;2.67;1.90;;;;;;;;;;6196444;28;20038;-78
2023/10/24 00:58:21;;;;;;;1.55;1.45;;;;;;;;;;6182726;28;20027;-78
2023/10/24 01:01:22;;;;;;;2.40;1.90;;;;;;;;;;6186211;28;20452;-77
2023/10/24 01:04:22;;;;;;;2.40;1.95;;;;;;;;;;6219184;28;20030;-78
2023/10/24 01:07:22;;;;;;;2.00;1.80;;;;;;;;;;6190500;28;20057;-78
2023/10/24 01:10:22;;;;;;;2.00;1.50;;;;;;;;;;6195841;28;20030;-78
2023/10/24 01:13:23;;;;;;;2.33;1.47;;;;;;;;;;6193304;28;20039;-80
2023/10/24 01:16:23;;;;;;;1.73;1.55;;;;;;;;;;6192582;28;20144;-79
2023/10/24 01:19:23;;;;;;;3.03;1.83;;;;;;;;;;6161306;28;20031;-79
2023/10/24 01:22:24;;;;;;;1.77;1.67;;;;;;;;;;6195136;28;20018;-79
2023/10/24 01:25:24;;;;;;;3.43;1.83;;;;;;;;;;6182081;28;20166;-79
2023/10/24 01:28:25;;;;;;;2.60;1.90;;;;;;;;;;6172131;28;20068;-78
2023/10/24 01:31:26;;;;;;;;;;;;;;;;;;6172149;28;20292;-79
2023/10/24 01:34:26;;;;;;;2.53;1.63;;;;;;;;;;6172442;28;20406;-79
2023/10/24 01:37:26;;;;;;;1.87;1.60;;;;;;;;;;6173568;28;20049;-78
2023/10/24 01:40:26;;;;;;;2.37;1.77;;;;;;;;;;6195321;28;20044;-79
2023/10/24 01:43:27;;;;;;;2.97;1.70;;;;;;;;;;6173318;28;20049;-79
2023/10/24 01:46:27;;;;;;;1.63;1.52;;;;;;;;;;6171275;28;20092;-79
2023/10/24 01:49:28;;;;;;;2.37;2.10;;;;;;;;;;6171498;28;20027;-79
2023/10/24 01:52:28;;;;;;;2.13;1.83;;;;;;;;;;6194912;28;20031;-79
2023/10/24 01:55:28;;;;;;;2.13;1.73;;;;;;;;;;6195380;28;20038;-76
2023/10/24 01:58:28;;;;;;;2.20;1.80;;;;;;;;;;6186039;28;20505;-76
2023/10/24 02:01:29;;;;;;;2.10;1.83;;;;;;;;;;6197682;28;20026;-76
2023/10/24 02:04:29;;;;;;;2.60;1.90;;;;;;;;;;6193797;28;20027;-78
2023/10/24 02:07:29;;;;;;;2.17;1.97;;;;;;;;;;6185127;28;20023;-79
2023/10/24 02:10:29;;;;;;;2.20;1.87;;;;;;;;;;6187146;28;20026;-79
2023/10/24 02:13:29;;;;;;;3.33;2.00;;;;;;;;;;6166789;28;20033;-79
2023/10/24 02:16:30;;;;;;;2.17;1.70;;;;;;;;;;6169884;28;20031;-78
2023/10/24 02:19:30;;;;;;;2.83;1.87;;;;;;;;;;6173825;28;20058;-78
2023/10/24 02:22:32;;;;;;;2.27;1.90;;;;;;;;;;6170251;28;20034;-79
2023/10/24 02:25:36;;;;;;;2.63;2.00;;;;;;;;;;6175982;28;20054;-78
2023/10/24 02:28:36;;;;;;;2.05;1.85;;;;;;;;;;6156795;28;20048;-78
2023/10/24 02:31:37;;;;;;;2.97;2.43;;;;;;;;;;6183498;28;20397;-79
2023/10/24 02:34:37;;;;;;;2.77;2.27;;;;;;;;;;6172736;28;20506;-79
2023/10/24 02:37:37;;;;;;;3.23;2.23;;;;;;;;;;6172995;28;20023;-80
2023/10/24 02:40:37;;;;;;;3.30;2.30;;;;;;;;;;6176710;28;20112;-79
2023/10/24 02:43:37;;;;;;;2.90;2.60;;;;;;;;;;6169703;28;20080;-78
2023/10/24 02:46:38;;;;;;;2.93;2.17;;;;;;;;;;6170082;28;20383;-76
2023/10/24 02:49:38;;;;;;;2.43;2.20;;;;;;;;;;6181297;28;20540;-76
2023/10/24 02:52:39;;;;;;;2.87;2.17;;;;;;;;;;6196202;28;20303;-76
2023/10/24 02:55:39;;;;;;;2.75;2.38;;;;;;;;;;6187883;28;20034;-79
2023/10/24 02:58:40;;;;;;;3.03;2.53;;;;;;;;;;6190552;28;20026;-79
2023/10/24 03:01:40;;;;;;;4.00;2.70;;;;;;;;;;6205958;28;20503;-78
2023/10/24 03:04:40;;;;;;;3.23;2.50;;;;;;;;;;6220722;28;20034;-79
2023/10/24 03:07:40;;;;;;;3.10;2.47;;;;;;;;;;6186237;28;20027;-79
2023/10/24 03:10:41;;;;;;;5.83;2.70;;;;;;;;;;6197044;28;20045;-79
2023/10/24 03:13:41;;;;;;;3.00;2.70;;;;;;;;;;6202282;28;20033;-79
2023/10/24 03:16:41;;;;;;;4.37;2.60;;;;;;;;;;6200600;28;20503;-80
2023/10/24 03:19:42;;;;;;;2.57;2.37;;;;;;;;;;6183356;28;20023;-79
2023/10/24 03:22:42;;;;;;;2.67;2.17;;;;;;;;;;6184830;28;20026;-79
2023/10/24 03:25:42;;;;;;;4.30;2.53;;;;;;;;;;6188960;28;20038;-78
2023/10/24 03:28:43;;;;;;;3.65;2.63;;;;;;;;;;6161028;28;20023;-79
2023/10/24 03:31:43;;;;;;;3.30;2.27;;;;;;;;;;6177910;28;20034;-76
2023/10/24 03:34:43;;;;;;;5.70;3.30;;;;;;;;;;6193299;28;20084;-75
2023/10/24 03:37:44;;;;;;;3.90;3.07;;;;;;;;;;6189763;28;20467;-75
2023/10/24 03:40:44;;;;;;;4.13;3.33;;;;;;;;;;6180774;28;20104;-76
2023/10/24 03:43:48;;;;;;;6.37;3.03;;;;;;;;;;6189224;28;20031;-76
2023/10/24 03:46:48;;;;;;;4.50;3.25;;;;;;;;;;6178521;28;20031;-79
2023/10/24 03:49:48;;;;;;;3.30;2.97;;;;;;;;;;6184876;28;20045;-78
2023/10/24 03:52:48;;;;;;;4.10;2.97;;;;;;;;;;6200888;28;20014;-78
2023/10/24 03:55:54;;;;;;;4.33;3.30;;;;;;;;;;6197955;28;20026;-78
2023/10/24 03:58:54;;;;;;;4.43;3.67;;;;;;;;;;6186791;28;20030;-78
2023/10/24 04:01:54;;;;;;;3.87;3.50;;;;;;;;;;6191915;28;20115;-78
2023/10/24 04:04:54;;;;;;;3.70;3.40;;;;;;;;;;6181247;28;20023;-78
2023/10/24 04:07:55;;;;;;;4.47;3.83;;;;;;;;;;6180627;28;20030;-78
2023/10/24 04:10:55;;;;;;;4.87;3.80;;;;;;;;;;6179973;28;20081;-78
2023/10/24 04:13:55;;;;;;;4.70;4.20;;;;;;;;;;6172043;28;20019;-78
2023/10/24 04:16:56;;;;;;;5.60;3.47;;;;;;;;;;6180759;28;20093;-78
2023/10/24 04:19:56;;;;;;;5.55;4.35;;;;;;;;;;6173092;28;20535;-78
2023/10/24 04:23:01;;;;;;;5.77;4.53;;;;;;;;;;6180161;28;20035;-75
2023/10/24 04:26:04;;;;;;;4.65;4.18;;;;;;;;;;6167815;28;20045;-75
2023/10/24 04:29:21;;;;;;;5.95;4.60;;;;;;;;;;6190016;28;20025;-75
2023/10/24 04:32:21;;;;;;;5.37;4.40;;;;;;;;;;6183341;28;20023;-75
2023/10/24 04:35:22;;;;;;;5.80;4.10;;;;;;;;;;6170702;28;20361;-75
2023/10/24 04:38:22;;;;;;;4.03;3.63;;;;;;;;;;6184520;28;20481;-75
2023/10/24 04:41:22;;;;;;;4.47;3.67;;;;;;;;;;6188385;28;20496;-75
2023/10/24 04:44:22;;;;;;;4.40;3.50;;;;;;;;;;6187688;28;20030;-75
2023/10/24 04:47:23;;;;;;;3.65;3.33;;;;;;;;;;6178919;28;20027;-76
2023/10/24 04:50:24;;;;;;;7.40;4.77;;;;;;;;;;6189523;28;20394;-76
2023/10/24 04:53:24;;;;;;;;;;;;;;;;;;6179100;28;20026;-75
2023/10/24 04:56:24;;;;;;;4.55;3.75;;;;;;;;;;6174733;28;19925;-77
2023/10/24 04:59:25;;;;;;;4.67;3.93;;;;;;;;;;6183651;28;20422;-78
2023/10/24 05:02:25;;;;;;;4.77;4.23;;;;;;;;;;6174679;28;20037;-77
2023/10/24 05:05:27;;;;;;;5.22;4.28;;;;;;;;;;6181595;28;20026;-77
2023/10/24 05:08:27;;;;;;;5.20;4.53;;;;;;;;;;6178902;28;20084;-77
2023/10/24 05:11:28;;;;;;;5.07;4.47;;;;;;;;;;6179383;28;20034;-77
2023/10/24 05:14:28;;;;;;;5.93;4.73;;;;;;;;;;6177680;28;20048;-77
2023/10/24 05:17:30;;;;;;;6.33;4.50;;;;;;;;;;6187485;28;20036;-77
2023/10/24 05:20:30;;;;;;;6.80;4.85;;;;;;;;;;6182190;28;20479;-77
2023/10/24 05:23:30;;;;;;;7.17;5.23;;;;;;;;;;6180465;28;20054;-77
2023/10/24 05:26:30;;;;;;;6.03;4.97;;;;;;;;;;6174850;28;20089;-77
2023/10/24 05:29:31;;;;;;;6.80;5.23;;;;;;;;;;6170849;28;20019;-77
2023/10/24 05:32:31;;;;;;;6.95;5.15;;;;;;;;;;6186312;28;20031;-77
2023/10/24 05:35:32;;;;;;;6.37;5.23;;;;;;;;;;6193042;28;20054;-78
2023/10/24 05:38:32;;;;;;;6.73;5.20;;;;;;;;;;6191044;28;20015;-77
2023/10/24 05:41:33;;;;;;;5.83;5.27;;;;;;;;;;6174013;28;20270;-78
2023/10/24 05:44:33;;;;;;;6.63;5.07;;;;;;;;;;6182806;28;20030;-77
2023/10/24 05:47:33;;;;;;;5.93;5.33;;;;;;;;;;6182261;28;20060;-78
2023/10/24 05:50:36;;;;;;;6.40;5.50;;;;;;;;;;6191239;28;20022;-77
2023/10/24 05:53:36;;;;;;;8.30;5.85;;;;;;;;;;6179829;28;20039;-78
2023/10/24 05:56:36;;;;;;;6.40;5.50;;;;;;;;;;6196427;28;20072;-77
2023/10/24 05:59:36;;;;;;;6.90;5.77;;;;;;;;;;6184788;28;20026;-77
2023/10/24 06:02:37;;;;;;;5.83;5.23;;;;;;;;;;6180310;28;20031;-78
2023/10/24 06:05:37;;;;;;;7.53;5.43;;;;;;;;;;6179487;28;20041;-78
2023/10/24 06:08:38;;;;;;;6.07;5.50;;;;;;;;;;6175402;28;20030;-77
2023/10/24 06:11:38;;;;;;;7.45;5.95;;;;;;;;;;6186879;28;20092;-77
2023/10/24 06:14:39;;;;;;;6.00;5.50;;;;;;;;;;6220692;28;20044;-77
2023/10/24 06:17:39;;;;;;;6.77;5.53;;;;;;;;;;6220462;28;20360;-77
2023/10/24 06:20:39;;;;;;;6.93;6.00;;;;;;;;;;6220662;28;20042;-77
2023/10/24 06:23:39;;;;;;;6.00;5.43;;;;;;;;;;6186972;28;20103;-78
2023/10/24 06:26:40;;;;;;;6.70;6.00;;;;;;;;;;6217362;28;20046;-77
2023/10/24 06:29:40;;;;;;;6.53;5.87;;;;;;;;;;6182698;28;20019;-77
2023/10/24 06:32:40;;;;;;;6.60;5.93;;;;;;;;;;6172567;28;20030;-78
2023/10/24 06:35:40;;;;;;;7.23;5.80;;;;;;;;;;6183525;28;20118;-78
2023/10/24 06:38:40;;;;;;;5.43;4.93;;;;;;;;;;6162122;28;20046;-80
2023/10/24 06:41:41;;;;;;;6.53;5.17;;;;;;;;;;6181210;28;20033;-77
2023/10/24 06:44:41;;;;;;;5.37;4.90;;;;;;;;;;6193566;28;20075;-78
2023/10/24 06:47:41;;;;;;;5.93;5.40;;;;;;;;;;6178619;28;20035;-78
2023/10/24 06:50:41;;;;;;;5.87;5.27;;;;;;;;;;6171151;28;20019;-77
2023/10/24 06:53:42;;;;;;;5.53;5.03;;;;;;;;;;6171701;28;20054;-79
2023/10/24 06:56:42;;;;;;;5.63;5.10;;;;;;;;;;6174854;28;20043;-77
2023/10/24 06:59:42;;;;;;;6.20;5.60;;;;;;;;;;6178168;28;20023;-77
2023/10/24 07:02:42;;;;;;;6.27;5.67;;;;;;;;;;6176507;28;20042;-78
2023/10/24 07:05:48;;;;;;;6.77;6.17;;;;;;;;;;6154739;28;20430;-77
2023/10/24 07:08:48;;;;;;;6.07;5.47;;;;;;;;;;6179622;28;20042;-77
2023/10/24 07:11:48;;;;;;;6.33;5.73;;;;;;;;;;6160303;28;20057;-77
2023/10/24 07:14:53;;;;;;;5.53;4.97;;;;;;;;;;6191983;28;20031;-77
2023/10/24 07:17:53;;;;;;;6.20;5.45;;;;;;;;;;6176920;28;20156;-77
2023/10/24 07:20:56;;;;;;;5.97;5.13;;;;;;;;;;6193057;28;20041;-76
2023/10/24 07:23:58;;;;;;;6.15;5.47;;;;;;;;;;6194040;28;20536;-77
2023/10/24 07:26:58;;;;;;;6.15;5.50;;;;;;;;;;6195004;28;20029;-77
2023/10/24 07:29:58;;;;;;;5.30;4.80;;;;;;;;;;6182181;28;20051;-78
2023/10/24 07:32:58;;;;;;;5.37;4.87;;;;;;;;;;6187974;28;20069;-77
2023/10/24 07:36:06;;;;;;;4.93;4.37;;;;;;;;;;6156544;28;20471;-77
2023/10/24 07:39:06;;;;;;;5.05;4.43;;;;;;;;;;6177113;28;20058;-77
2023/10/24 07:42:08;;;;;;;6.60;4.85;;;;;;;;;;6197364;28;20026;-77
2023/10/24 07:45:11;;;;;;;6.57;5.30;;;;;;;;;;6196876;28;20027;-77
2023/10/24 07:48:12;;;;;;;6.85;5.30;;;;;;;;;;6173490;28;20940;-77
2023/10/24 07:51:12;;;;;;;7.28;5.40;;;;;;;;;;6176595;28;20031;-77
2023/10/24 07:54:13;;;;;;;4.97;4.47;;;;;;;;;;6183984;28;20095;-78
2023/10/24 07:57:13;;;;;;;5.77;4.73;;;;;;;;;;6192125;28;20035;-78
2023/10/24 08:00:13;;;;;;;4.77;4.20;;;;;;;;;;6194291;28;20022;-77
2023/10/24 08:03:14;;;;;;;4.50;4.10;;;;;;;;;;6192245;28;20075;-80
2023/10/24 08:06:14;;;;;;;4.60;4.20;;;;;;;;;;6173925;28;20045;-78
2023/10/24 08:09:15;;;;;;;4.47;4.07;;;;;;;;;;6190800;28;20109;-78
2023/10/24 08:12:15;;;;;;;5.67;4.20;;;;;;;;;;6177910;28;20240;-78
2023/10/24 08:15:15;;;;;;;5.20;4.47;;;;;;;;;;6189111;28;20038;-79
2023/10/24 08:18:15;;;;;;;4.50;3.97;;;;;;;;;;6184707;28;20023;-80
2023/10/24 08:21:16;;;;;;;5.23;3.63;;;;;;;;;;6180994;28;20121;-79
2023/10/24 08:24:16;;;;;;;4.37;3.50;;;;;;;;;;6197693;28;20015;-78
2023/10/24 08:27:16;;;;;;;4.30;2.93;;;;;;;;;;6190339;28;20377;-78
2023/10/24 08:30:17;;;;;;;2.87;2.63;;;;;;;;;;6177405;28;20015;-78
2023/10/24 08:33:19;;;;;;;4.20;2.80;;;;;;;;;;6195017;28;20015;-79
2023/10/24 08:36:19;;;;;;;4.55;2.85;;;;;;;;;;6190538;28;20034;-78
2023/10/24 08:39:21;;;;;;;3.77;2.73;;;;;;;;;;6193367;28;20061;-78
2023/10/24 08:42:22;;;;;;;3.35;2.92;;;;;;;;;;6191653;28;20098;-78
2023/10/24 08:45:23;;;;;;;3.22;2.92;;;;;;;;;;6159453;28;20075;-78
2023/10/24 08:48:23;;;;;;;4.13;3.00;;;;;;;;;;6172538;28;20035;-79
2023/10/24 08:51:23;;;;;;;3.47;2.93;;;;;;;;;;6282145;28;20020;-79
2023/10/24 08:54:25;;;;;;;3.97;2.60;;;;;;;;;;6243583;28;20443;-78
2023/10/24 08:57:27;;;;;;;2.88;2.60;;;;;;;;;;6171762;28;20023;-78
2023/10/24 09:00:27;;;;;;;3.30;3.00;;;;;;;;;;6184224;28;20022;-79
2023/10/24 09:03:28;;;;;;;3.13;2.87;;;;;;;;;;6190737;28;20110;-78
2023/10/24 09:06:30;;;;;;;3.38;2.30;;;;;;;;;;6172403;28;20023;-79
2023/10/24 09:09:30;;;;;;;2.55;2.35;;;;;;;;;;6184735;28;20037;-78
2023/10/24 09:12:31;;;;;;;3.37;2.37;;;;;;;;;;6183953;28;20022;-79
2023/10/24 09:15:34;;;;;;;3.33;2.22;;;;;;;;;;6196779;28;20513;-78
2023/10/24 09:18:35;;;;;;;4.80;2.63;;;;;;;;;;6183344;28;20403;-79
2023/10/24 09:21:35;;;;;;;2.50;2.30;;;;;;;;;;6175544;28;20041;-79
2023/10/24 09:24:36;;;;;;;2.67;2.23;;;;;;;;;;6185893;28;20018;-79
2023/10/24 09:27:36;;;;;;;2.63;2.28;;;;;;;;;;6193616;28;20034;-79
2023/10/24 09:30:39;;;;;;;3.53;2.37;;;;;;;;;;6191908;28;20039;-78
2023/10/24 09:33:39;;;;;;;3.50;2.60;;;;;;;;;;6192314;28;20018;-79
2023/10/24 09:36:40;;;;;;;4.78;2.80;;;;;;;;;;6195501;28;20038;-78
2023/10/24 09:40:03;;;;;;;3.53;3.10;;;;;;;;;;6176782;28;20051;-78
2023/10/24 09:43:07;;;;;;;3.83;2.70;;;;;;;;;;6178808;28;20266;-79
2023/10/24 09:46:08;;;;;;;3.17;2.85;;;;;;;;;;6187667;28;20078;-78
2023/10/24 09:49:10;;;;;;;2.92;2.60;;;;;;;;;;6180317;28;20019;-78
2023/10/24 09:52:11;;;;;;;3.00;2.55;;;;;;;;;;6154063;28;20039;-80
2023/10/24 09:55:13;;;;;;;3.08;2.70;;;;;;;;;;6171820;28;20039;-79
2023/10/24 09:58:14;;;;;;;2.65;2.40;;;;;;;;;;6184251;28;20077;-78
2023/10/24 10:01:15;;;;;;;2.72;2.53;;;;;;;;;;6188816;28;20048;-78
2023/10/24 10:04:16;;;;;;;2.47;2.28;;;;;;;;;;6188149;28;20022;-78
2023/10/24 10:07:17;;;;;;;2.20;2.00;;;;;;;;;;6194197;28;20130;-78
2023/10/24 10:10:19;;;;;;;2.10;1.77;;;;;;;;;;6193705;28;20453;-78
2023/10/24 10:13:21;;;;;;;1.90;1.60;;;;;;;;;;6179718;28;20803;-79
2023/10/24 10:16:22;;;;;;;2.92;1.77;;;;;;;;;;6188817;28;20134;-78
2023/10/24 10:19:40;;;;;;;1.63;1.30;;;;;;;;;;6171979;28;20428;-78
2023/10/24 10:22:41;;;;;;;1.52;1.25;;;;;;;;;;6189293;28;20018;-78
2023/10/24 10:25:50;;;;;;;2.53;1.33;;;;;;;;;;6185059;28;20035;-78
2023/10/24 10:29:00;;;;;;;1.65;1.33;;;;;;;;;;6205066;28;20134;-77
2023/10/24 10:32:19;;;;;;;1.80;1.30;;;;;;;;;;6193423;28;20022;-77
2023/10/24 10:35:19;;;;;;;2.20;1.40;;;;;;;;;;6182725;28;20494;-77
2023/10/24 10:38:23;;;;;;;3.28;1.80;;;;;;;;;;6186057;28;20022;-78
2023/10/24 10:41:23;;;;;;;5.93;2.13;;;;;;;;;;6171288;28;20070;-78
2023/10/24 10:44:33;;;;;;;3.07;1.70;;;;;;;;;;6183934;28;20034;-78
2023/10/24 10:47:34;;;;;;;2.40;1.70;;;;;;;;;;6170747;28;20053;-78
2023/10/24 10:50:37;;;;;;;3.13;1.73;;;;;;;;;;6179199;28;20027;-76
2023/10/24 10:53:48;;;;;;;2.17;1.60;;;;;;;;;;6163738;28;20023;-76
2023/10/24 10:56:48;;;;;;;2.10;1.43;;;;;;;;;;6182769;28;20088;-76
2023/10/24 11:00:00;;;;;;;1.75;1.38;;;;;;;;;;6173837;28;20075;-76
2023/10/24 11:03:10;;;;;;;1.50;1.20;;;;;;;;;;6191837;28;20469;-76
2023/10/24 11:06:17;;;;;;;2.58;1.45;;;;;;;;;;6217754;28;20089;-76
2023/10/24 11:09:18;;;;;;;1.90;1.33;;;;;;;;;;6207373;28;20416;-76
2023/10/24 11:12:19;;;;;;;1.52;1.15;;;;;;;;;;6180120;28;20031;-76
2023/10/24 11:15:19;;;;;;;1.80;1.30;;;;;;;;;;6181643;28;20035;-76
2023/10/24 11:18:19;;;;;;;3.87;1.53;;;;;;;;;;6178629;28;20423;-77
2023/10/24 11:21:19;;;;;;;1.37;1.27;;;;;;;;;;6198244;28;20024;-76
2023/10/24 11:24:22;;;;;;;1.63;1.25;;;;;;;;;;6208861;28;20033;-76
2023/10/24 11:27:22;;;;;;;1.60;1.05;;;;;;;;;;6196317;28;20038;-77
2023/10/24 11:30:23;;;;;;;1.93;1.17;;;;;;;;;;6184673;28;20654;-77
2023/10/24 11:33:23;;;;;;;1.13;1.07;;;;;;;;;;6197761;28;20318;-77
2023/10/24 11:36:25;;;;;;;2.45;1.20;;;;;;;;;;6197630;28;20129;-78
2023/10/24 11:39:26;;;;;;;1.30;1.10;;;;;;;;;;6184440;28;20488;-78
2023/10/24 11:42:27;;;;;;;2.05;1.10;;;;;;;;;;6179084;28;20160;-78
2023/10/24 11:45:27;;;;;;;1.55;1.08;;;;;;;;;;6197418;28;20462;-77
2023/10/24 11:48:27;;;;;;;1.33;1.00;;;;;;;;;;6191481;28;20037;-78
2023/10/24 11:51:29;;;;;;;0.80;0.80;;;;;;;;;;6183915;28;20053;-77
2023/10/24 11:54:29;;;;;;;1.90;1.60;;;;;;;;;;6192914;28;20484;-78
2023/10/24 11:57:29;;;;;;;2.13;1.20;;;;;;;;;;6185559;28;20022;-77
2023/10/24 12:00:30;;;;;;;1.47;1.30;;;;;;;;;;6197679;28;20276;-78
2023/10/24 12:03:47;;;;;;;2.10;1.20;;;;;;;;;;6179957;28;20023;-78
2023/10/24 12:06:47;;;;;;;1.73;1.05;;;;;;;;;;6173537;28;20483;-78
2023/10/24 12:09:47;;;;;;;1.60;1.10;;;;;;;;;;6173853;28;20023;-77
2023/10/24 12:12:47;;;;;;;1.60;1.27;;;;;;;;;;6180348;28;20038;-78
2023/10/24 12:15:48;;;;;;;2.40;1.13;;;;;;;;;;6197967;28;20395;-78
2023/10/24 12:18:48;;;;;;;1.65;1.20;;;;;;;;;;6188145;28;20087;-78
2023/10/24 12:21:48;;;;;;;2.50;1.60;;;;;;;;;;6171157;28;20045;-78
2023/10/24 12:24:49;;;;;;;2.07;1.37;;;;;;;;;;6195120;28;20088;-78
2023/10/24 12:27:49;;;;;;;2.07;1.50;;;;;;;;;;6198050;28;20011;-77
2023/10/24 12:30:49;;;;;;;2.33;1.33;;;;;;;;;;6178339;28;20471;-77
2023/10/24 12:33:50;;;;;;;2.30;1.40;;;;;;;;;;6195569;28;20050;-78
2023/10/24 12:36:52;;;;;;;1.45;1.33;;;;;;;;;;6194413;28;20035;-78
2023/10/24 12:39:53;;;;;;;3.88;2.00;;;;;;;;;;6197686;28;20050;-78
2023/10/24 12:42:53;;;;;;;2.00;1.52;;;;;;;;;;6194219;28;20522;-78
2023/10/24 12:45:54;;;;;;;3.00;1.43;;;;;;;;;;6195698;28;20050;-76
2023/10/24 12:48:54;;;;;;;1.90;1.67;;;;;;;;;;6187210;28;20022;-77
2023/10/24 12:51:54;;;;;;;1.87;1.60;;;;;;;;;;6180273;28;20025;-77
2023/10/24 12:54:54;;;;;;;4.37;1.97;;;;;;;;;;6187778;28;20113;-76
2023/10/24 12:57:55;;;;;;;3.07;1.97;;;;;;;;;;6196695;28;20029;-77
2023/10/24 13:00:55;;;;;;;3.83;1.93;;;;;;;;;;6184257;28;20030;-76
2023/10/24 13:03:55;;;;;;;2.72;2.00;;;;;;;;;;6165651;28;20022;-76
2023/10/24 13:06:56;;;;;;;4.00;2.27;;;;;;;;;;6155221;28;20023;-76
2023/10/24 13:09:56;;;;;;;2.63;2.00;;;;;;;;;;6178813;28;20027;-76
2023/10/24 13:12:56;;;;;;;2.63;1.90;;;;;;;;;;6177311;28;20109;-76
2023/10/24 13:15:56;;;;;;;2.10;1.87;;;;;;;;;;6196611;28;20453;-76
2023/10/24 13:18:57;;;;;;;2.17;1.97;;;;;;;;;;6183981;28;20455;-75
2023/10/24 13:21:57;;;;;;;1.97;1.67;;;;;;;;;;6172383;28;20019;-76
2023/10/24 13:24:57;;;;;;;1.67;1.30;;;;;;;;;;6191459;28;20030;-76
2023/10/24 13:27:57;;;;;;;1.63;1.40;;;;;;;;;;6195792;28;20033;-76
2023/10/24 13:30:58;;;;;;;2.60;1.53;;;;;;;;;;6181716;28;20026;-76
2023/10/24 13:33:58;;;;;;;2.23;1.33;;;;;;;;;;6180355;28;20351;-76
2023/10/24 13:36:59;;;;;;;1.80;1.30;;;;;;;;;;6195588;28;20391;-76
2023/10/24 13:39:59;;;;;;;2.42;1.60;;;;;;;;;;6196056;28;20050;-75
2023/10/24 13:43:00;;;;;;;2.10;1.50;;;;;;;;;;6185423;28;20074;-76
2023/10/24 13:46:00;;;;;;;1.70;1.20;;;;;;;;;;6172511;28;20323;-76
2023/10/24 13:49:01;;;;;;;1.98;1.50;;;;;;;;;;6190038;28;20121;-76
2023/10/24 13:52:01;;;;;;;1.50;1.40;;;;;;;;;;6204776;28;20045;-76
2023/10/24 13:55:03;;;;;;;1.63;1.23;;;;;;;;;;6196257;28;20033;-76
2023/10/24 13:58:03;;;;;;;1.40;1.23;;;;;;;;;;6196317;28;20027;-78
2023/10/24 14:01:03;;;;;;;1.47;1.23;;;;;;;;;;6168344;28;20031;-78
2023/10/24 14:04:04;;;;;;;1.40;1.13;;;;;;;;;;6179002;28;20033;-78
2023/10/24 14:07:04;;;;;;;2.83;1.93;;;;;;;;;;6175904;28;20031;-78
2023/10/24 14:10:05;;;;;;;2.47;1.77;;;;;;;;;;6190951;28;20052;-79
2023/10/24 14:13:05;;;;;;;2.03;1.67;;;;;;;;;;6182102;28;20474;-78
2023/10/24 14:16:06;;;;;;;2.20;1.50;;;;;;;;;;6194609;28;20117;-78
2023/10/24 14:19:06;;;;;;;1.73;1.35;;;;;;;;;;6179593;28;20031;-78
2023/10/24 14:22:06;;;;;;;2.00;1.17;;;;;;;;;;6182226;28;20035;-78
2023/10/24 14:25:08;;;;;;;2.63;1.37;;;;;;;;;;6175478;28;20031;-78
2023/10/24 14:28:09;;;;;;;1.83;1.20;;;;;;;;;;6179069;28;20030;-78
2023/10/24 14:31:09;;;;;;;1.15;1.00;;;;;;;;;;6183832;28;20032;-78
2023/10/24 14:34:10;;;;;;;1.37;1.27;;;;;;;;;;6192311;28;20026;-78
2023/10/24 14:37:10;;;;;;;2.37;1.27;;;;;;;;;;6180496;28;20035;-78
2023/10/24 14:40:10;;;;;;;2.10;1.30;;;;;;;;;;6191854;28;20384;-78
2023/10/24 14:43:11;;;;;;;1.50;1.13;;;;;;;;;;6194736;28;20082;-78
2023/10/24 14:46:11;;;;;;;1.83;1.30;;;;;;;;;;6194896;28;20082;-77
2023/10/24 14:49:15;;;;;;;1.43;1.30;;;;;;;;;;6193043;28;20474;-77
2023/10/24 14:52:16;;;;;;;1.63;1.20;;;;;;;;;;6183110;28;20076;-78
2023/10/24 14:55:16;;;;;;;1.37;1.27;;;;;;;;;;6173852;28;20040;-78
2023/10/24 14:58:18;;;;;;;2.00;1.30;;;;;;;;;;6179420;28;20416;-78
2023/10/24 15:01:18;;;;;;;1.63;1.38;;;;;;;;;;6195247;28;20072;-78
2023/10/24 15:04:19;;;;;;;2.20;1.33;;;;;;;;;;6185873;28;20031;-78
2023/10/24 15:07:19;;;;;;;2.07;1.37;;;;;;;;;;6170368;28;20099;-78
2023/10/24 15:10:19;;;;;;;2.33;1.57;;;;;;;;;;6186083;28;20027;-78
2023/10/24 15:13:22;;;;;;;1.73;1.63;;;;;;;;;;6177029;28;20031;-78
2023/10/24 15:16:22;;;;;;;1.85;1.75;;;;;;;;;;6187270;28;20426;-78
2023/10/24 15:19:22;;;;;;;2.53;1.93;;;;;;;;;;6188920;28;20083;-79
2023/10/24 15:22:23;;;;;;;1.93;1.73;;;;;;;;;;6188419;28;20027;-78
2023/10/24 15:25:23;;;;;;;2.13;1.93;;;;;;;;;;6182110;28;20027;-79
2023/10/24 15:28:23;;;;;;;2.03;1.73;;;;;;;;;;6187506;28;20277;-78
2023/10/24 15:31:23;;;;;;;4.03;1.73;;;;;;;;;;6206172;28;20026;-78
2023/10/24 15:34:27;;;;;;;3.83;1.90;;;;;;;;;;6180528;28;20085;-78
2023/10/24 15:37:27;;;;;;;2.75;2.05;;;;;;;;;;6188452;28;20046;-78
2023/10/24 15:40:28;;;;;;;2.37;1.80;;;;;;;;;;6183157;28;20395;-77
2023/10/24 15:43:28;;;;;;;2.17;1.93;;;;;;;;;;6186410;28;20268;-78
2023/10/24 15:46:29;;;;;;;4.00;2.83;;;;;;;;;;6188137;28;20027;-77
2023/10/24 15:49:29;;;;;;;3.93;2.53;;;;;;;;;;6205784;28;20502;-76
2023/10/24 15:52:29;;;;;;;3.33;2.10;;;;;;;;;;6179366;28;20076;-77
2023/10/24 15:55:29;;;;;;;2.17;1.93;;;;;;;;;;6192908;28;20429;-77
2023/10/24 15:58:30;;;;;;;2.47;2.00;;;;;;;;;;6183085;28;20105;-77
2023/10/24 16:01:30;;;;;;;3.40;2.05;;;;;;;;;;6181483;28;20031;-77
2023/10/24 16:04:30;;;;;;;3.20;2.17;;;;;;;;;;6203001;28;20109;-77
2023/10/24 16:07:31;;;;;;;2.77;2.20;;;;;;;;;;6203472;28;20105;-77
2023/10/24 16:10:31;;;;;;;2.20;1.80;;;;;;;;;;6197477;28;20069;-77
2023/10/24 16:13:31;;;;;;;2.67;2.10;;;;;;;;;;6178548;28;20038;-77
2023/10/24 16:16:32;;;;;;;2.90;1.90;;;;;;;;;;6177746;28;20506;-77
2023/10/24 16:19:32;;;;;;;2.00;1.80;;;;;;;;;;6177874;28;20479;-77
2023/10/24 16:22:32;;;;;;;2.33;1.73;;;;;;;;;;6196879;28;20101;-77
2023/10/24 16:25:32;;;;;;;2.27;1.90;;;;;;;;;;6190953;28;20160;-77
2023/10/24 16:28:35;;;;;;;2.13;1.73;;;;;;;;;;6180864;28;20031;-77
2023/10/24 16:31:35;;;;;;;2.10;1.90;;;;;;;;;;6191233;28;20018;-78
2023/10/24 16:34:35;;;;;;;2.60;1.98;;;;;;;;;;6180358;28;20050;-77
2023/10/24 16:37:36;;;;;;;3.20;2.73;;;;;;;;;;6188660;28;20382;-77
2023/10/24 16:40:37;;;;;;;3.63;2.67;;;;;;;;;;6208025;28;20099;-78
2023/10/24 16:43:37;;;;;;;4.18;2.28;;;;;;;;;;6199826;28;20030;-78
2023/10/24 16:46:39;;;;;;;3.80;2.40;;;;;;;;;;6161755;28;20077;-77
2023/10/24 16:49:39;;;;;;;4.82;2.53;;;;;;;;;;6190354;28;20023;-77
2023/10/24 16:52:40;;;;;;;2.70;2.00;;;;;;;;;;6193413;28;20030;-78
2023/10/24 16:55:40;;;;;;;4.47;2.50;;;;;;;;;;6178612;28;20038;-77
2023/10/24 16:58:40;;;;;;;2.87;2.47;;;;;;;;;;6192528;28;20031;-77
2023/10/24 17:01:41;;;;;;;2.58;2.17;;;;;;;;;;6195436;28;20037;-77
2023/10/24 17:04:41;;;;;;;3.13;2.50;;;;;;;;;;6195052;28;20027;-77
2023/10/24 17:07:42;;;;;;;2.17;1.97;;;;;;;;;;6191880;28;20531;-77
2023/10/24 17:10:43;;;;;;;3.30;2.20;;;;;;;;;;6187758;28;20025;-78
2023/10/24 17:13:43;;;;;;;3.22;2.38;;;;;;;;;;6186905;28;20039;-78
2023/10/24 17:16:43;;;;;;;2.80;2.30;;;;;;;;;;6190734;28;20416;-78
2023/10/24 17:19:43;;;;;;;3.13;2.33;;;;;;;;;;6176092;28;20070;-78
2023/10/24 17:22:44;;;;;;;4.27;2.77;;;;;;;;;;6186692;28;20022;-78
2023/10/24 17:25:45;;;;;;;3.17;2.63;;;;;;;;;;6192431;28;20065;-77
2023/10/24 17:28:45;;;;;;;3.38;2.58;;;;;;;;;;6192948;28;20413;-77
2023/10/24 17:31:45;;;;;;;2.93;2.60;;;;;;;;;;6195835;28;20105;-77
2023/10/24 17:34:45;;;;;;;3.13;2.50;;;;;;;;;;6194594;28;20104;-77
2023/10/24 17:37:46;;;;;;;3.07;2.50;;;;;;;;;;6180460;28;20109;-76
2023/10/24 17:40:47;;;;;;;3.47;2.80;;;;;;;;;;6182169;28;20153;-76
2023/10/24 17:43:47;;;;;;;3.67;2.65;;;;;;;;;;6192949;28;20076;-77
2023/10/24 17:46:48;;;;;;;3.87;2.67;;;;;;;;;;6194892;28;20395;-77
2023/10/24 17:49:50;;;;;;;4.13;2.70;;;;;;;;;;6193898;28;20111;-76
2023/10/24 17:52:50;;;;;;;4.45;2.85;;;;;;;;;;6194359;28;20049;-77
2023/10/24 17:55:51;;;;;;;4.40;3.10;;;;;;;;;;6178172;28;20058;-76
2023/10/24 17:58:52;;;;;;;4.05;2.88;;;;;;;;;;6191534;28;20075;-76
2023/10/24 18:01:52;;;;;;;4.50;2.83;;;;;;;;;;6198193;28;20038;-76
2023/10/24 18:04:52;;;;;;;3.00;2.43;;;;;;;;;;6192557;28;20030;-77